Venice, Utah
Current Conditions -  °F | °C
As of 11:15 PM on Tuesday 21 Oct 2014 (Local Time) from KHVE Reporting Station
Clear Clear  
Wind Chill: 63°   Ceiling: Unl
Heat Index: 63°   Visibility: 10mi
Dew Point: 34°   Wind: 6mph
Humidity: 34%   Direction: 310°NW
Pressure: 29.98"   Gusts: NA
Location:  38.7083°N, 111.729°W
Report Text: KHVE 220515Z AUTO 31005KT 10SM CLR 17/01 A2998 RMK AO2
Loading
Personal Weather Stations






























Interactive Weather Map
Tropical Storm Tracking
New forecast layout! Learn more

10-Day Weather Forecast

Advertisements
Track Severe Weather on mobile